Time;durP1;ratioP1;P1;durP2;ratioP2;P2;SDS_P1;SDS_P2;PMS_P1;PMS_P2;Temp;Humidity;BMP_temperature;BMP_pressure;BME280_temperature;BME280_humidity;BME280_pressure;Samples;Min_cycle;Max_cycle;Signal;HPM_P1;HPM_P2
2023/02/11 00:00:56;;;;;;;60.83;32.33;;;;;;;6.02;100.00;102898.06;4991161;28;20213;-68
2023/02/11 00:03:21;;;;;;;66.53;32.40;;;;;;;6.04;100.00;102910.91;4987527;28;20283;-67
2023/02/11 00:06:00;;;;;;;60.83;32.60;;;;;;;6.07;100.00;102919.63;5004931;28;20792;-68
2023/02/11 00:08:26;;;;;;;58.27;33.47;;;;;;;6.07;100.00;102906.91;5006462;28;20683;-67
2023/02/11 00:10:54;;;;;;;57.80;31.93;;;;;;;6.10;100.00;102894.41;5002234;28;20187;-67
2023/02/11 00:13:19;;;;;;;61.13;34.03;;;;;;;6.11;100.00;102900.38;5002585;28;20616;-67
2023/02/11 00:15:45;;;;;;;55.10;31.90;;;;;;;6.10;100.00;102891.88;5004482;28;20246;-67
2023/02/11 00:18:10;;;;;;;58.83;31.93;;;;;;;6.10;100.00;102891.88;5003491;28;20203;-67
2023/02/11 00:20:38;;;;;;;55.70;32.07;;;;;;;6.12;100.00;102899.63;5002332;28;20217;-67
2023/02/11 00:23:03;;;;;;;58.40;32.67;;;;;;;6.13;100.00;102898.84;5002961;28;20206;-68
2023/02/11 00:25:29;;;;;;;54.60;32.93;;;;;;;6.12;100.00;102905.56;5003436;28;20214;-68
2023/02/11 00:27:54;;;;;;;61.73;33.83;;;;;;;6.12;100.00;102910.66;5007914;28;20205;-68
2023/02/11 00:30:20;;;;;;;58.33;33.40;;;;;;;6.12;100.00;102894.53;5011938;28;20272;-67
2023/02/11 00:32:45;;;;;;;57.40;33.60;;;;;;;6.14;100.00;102895.50;5011461;28;20232;-67
2023/02/11 00:35:11;;;;;;;62.63;34.93;;;;;;;6.14;100.00;102886.22;5005114;28;20223;-67
2023/02/11 00:37:38;;;;;;;68.43;35.10;;;;;;;6.15;100.00;102880.38;5007155;28;20198;-68
2023/02/11 00:40:04;;;;;;;62.83;33.97;;;;;;;6.18;100.00;102880.56;5010463;28;20567;-66
2023/02/11 00:42:34;;;;;;;61.80;33.67;;;;;;;6.18;100.00;102878.00;5004229;28;20210;-67
2023/02/11 00:45:01;;;;;;;65.40;35.43;;;;;;;6.18;100.00;102883.09;5004055;28;20226;-67
2023/02/11 00:47:26;;;;;;;62.53;34.13;;;;;;;6.21;100.00;102887.53;5004124;28;20207;-68
2023/02/11 00:49:51;;;;;;;63.93;36.50;;;;;;;6.20;100.00;102885.75;4979225;28;20684;-67
2023/02/11 00:52:18;;;;;;;66.00;36.47;;;;;;;6.18;100.00;102883.09;4985236;28;20199;-67
2023/02/11 00:54:43;;;;;;;58.47;33.83;;;;;;;6.20;100.00;102884.09;4974735;28;20560;-67
2023/02/11 00:57:09;;;;;;;63.87;35.43;;;;;;;6.21;100.00;102872.28;5002306;28;20245;-67
2023/02/11 00:59:34;;;;;;;66.47;34.40;;;;;;;6.20;100.00;102871.38;5006948;28;20285;-67
2023/02/11 01:02:00;;;;;;;60.37;34.57;;;;;;;6.22;100.00;102874.03;4988410;28;20297;-67
2023/02/11 01:04:25;;;;;;;64.70;35.73;;;;;;;6.22;100.00;102868.97;5001956;28;20299;-67
2023/02/11 01:06:51;;;;;;;65.93;36.30;;;;;;;6.23;100.00;102866.53;5011064;28;20218;-67
2023/02/11 01:09:16;;;;;;;71.63;36.07;;;;;;;6.23;100.00;102852.91;5003211;28;20204;-67
2023/02/11 01:11:42;;;;;;;66.80;36.43;;;;;;;6.19;100.00;102849.28;4988053;28;20195;-67
2023/02/11 01:14:09;;;;;;;68.50;37.10;;;;;;;6.19;100.00;102841.66;4998312;28;20220;-67
2023/02/11 01:16:35;;;;;;;65.47;37.17;;;;;;;6.19;100.00;102848.38;5001573;28;20254;-68
2023/02/11 01:19:00;;;;;;;63.67;38.00;;;;;;;6.19;100.00;102834.03;5008485;28;20286;-67
2023/02/11 01:21:26;;;;;;;68.90;38.23;;;;;;;6.19;100.00;102828.94;5002724;28;20667;-67
2023/02/11 01:23:52;;;;;;;68.50;39.17;;;;;;;6.18;100.00;102831.38;4989634;28;20242;-67
2023/02/11 01:26:17;;;;;;;74.67;38.07;;;;;;;6.16;100.00;102826.16;5006331;28;20585;-67
2023/02/11 01:28:43;;;;;;;72.47;39.70;;;;;;;6.17;100.00;102827.06;5008448;28;20194;-67
2023/02/11 01:31:09;;;;;;;75.20;39.80;;;;;;;6.16;100.00;102823.63;5006365;28;20195;-67
2023/02/11 01:33:34;;;;;;;71.53;40.07;;;;;;;6.16;100.00;102820.19;5005685;28;20211;-67
2023/02/11 01:36:01;;;;;;;71.30;39.33;;;;;;;6.16;100.00;102816.00;4990312;28;20272;-67
2023/02/11 01:38:27;;;;;;;77.20;41.00;;;;;;;6.17;100.00;102807.59;5007313;28;20199;-66
2023/02/11 01:40:54;;;;;;;66.97;38.13;;;;;;;6.18;100.00;102814.44;4992669;28;20265;-67
2023/02/11 01:43:20;;;;;;;71.63;40.53;;;;;;;6.17;100.00;102802.50;5003615;28;20823;-67
2023/02/11 01:45:48;;;;;;;68.80;39.07;;;;;;;6.19;100.00;102798.41;4992835;28;20315;-66
2023/02/11 01:48:21;;;;;;;71.80;39.10;;;;;;;6.18;100.00;102804.25;5000538;28;20257;-66
2023/02/11 01:50:52;;;;;;;75.47;39.60;;;;;;;6.18;100.00;102795.75;5001080;28;20786;-67
2023/02/11 01:58:49;;;;;;;72.07;39.50;;;;;;;6.17;100.00;102799.09;4984415;28;20198;-67
2023/02/11 02:01:20;;;;;;;67.80;39.40;;;;;;;6.17;100.00;102799.97;4983758;28;20214;-67
2023/02/11 02:03:51;;;;;;;73.00;39.73;;;;;;;6.18;100.00;102785.59;5000318;28;20226;-67
2023/02/11 02:06:27;;;;;;;75.57;39.47;;;;;;;6.18;100.00;102793.22;5003564;28;20225;-67
2023/02/11 02:09:03;;;;;;;76.77;38.33;;;;;;;6.19;100.00;102784.81;5001292;28;20199;-67
2023/02/11 02:11:28;;;;;;;71.13;39.17;;;;;;;6.17;100.00;102784.69;5007304;28;20719;-67
2023/02/11 02:13:54;;;;;;;72.77;38.20;;;;;;;6.21;100.00;102785.81;5007827;28;20286;-66
2023/02/11 02:16:21;;;;;;;70.97;39.30;;;;;;;6.21;100.00;102775.63;5004896;28;20225;-66
2023/02/11 02:19:08;;;;;;;66.23;37.60;;;;;;;6.20;100.00;102781.47;5006673;28;20221;-67
2023/02/11 02:22:13;;;;;;;74.57;38.03;;;;;;;6.21;100.00;102785.81;5002658;28;20200;-67
2023/02/11 02:24:55;;;;;;;70.83;37.67;;;;;;;6.21;100.00;102780.72;5001557;28;20254;-68
2023/02/11 02:27:39;;;;;;;66.90;37.37;;;;;;;6.21;100.00;102784.13;4994381;28;20230;-68
2023/02/11 02:30:32;;;;;;;63.87;36.60;;;;;;;6.23;100.00;102776.63;4999246;28;20191;-68
2023/02/11 02:33:24;;;;;;;69.60;35.83;;;;;;;6.23;100.00;102776.63;4999886;28;20187;-67
2023/02/11 02:36:06;;;;;;;68.10;36.77;;;;;;;6.22;100.00;102775.72;4958490;28;20228;-68
2023/02/11 02:38:49;;;;;;;69.77;36.67;;;;;;;6.23;100.00;102777.50;5001734;28;20215;-67
2023/02/11 02:41:19;;;;;;;69.63;35.67;;;;;;;6.25;100.00;102781.03;4998314;28;20559;-66
2023/02/11 02:43:48;;;;;;;62.70;34.03;;;;;;;6.28;100.00;102770.16;5004072;28;20203;-67
2023/02/11 02:46:22;;;;;;;64.10;33.93;;;;;;;6.31;100.00;102767.84;5001853;28;20702;-67
2023/02/11 02:48:49;;;;;;;64.40;35.33;;;;;;;6.32;100.00;102760.31;5004472;28;20226;-67
2023/02/11 02:51:48;;;;;;;64.80;34.07;;;;;;;6.34;100.00;102773.13;5004089;28;20183;-67
2023/02/11 02:54:44;;;;;;;63.50;31.63;;;;;;;6.34;100.00;102758.75;5003772;28;20200;-66
2023/02/11 02:57:19;;;;;;;57.57;33.10;;;;;;;6.35;100.00;102763.03;5003048;28;20229;-67
2023/02/11 03:00:10;;;;;;;62.73;31.67;;;;;;;6.38;100.00;102757.28;5001167;28;20198;-67
2023/02/11 03:02:46;;;;;;;66.10;32.03;;;;;;;6.38;100.00;102755.63;4996854;28;20202;-68
2023/02/11 03:05:17;;;;;;;52.93;30.83;;;;;;;6.40;100.00;102753.19;5005324;28;20281;-68
2023/02/11 03:07:51;;;;;;;52.87;30.63;;;;;;;6.40;100.00;102753.19;4987293;28;20235;-67
2023/02/11 03:10:40;;;;;;;56.23;30.53;;;;;;;6.42;100.00;102761.78;5003516;28;20257;-67
2023/02/11 03:13:07;;;;;;;58.87;31.33;;;;;;;6.41;100.00;102755.81;4983250;28;20239;-67
2023/02/11 03:15:37;;;;;;;60.90;31.30;;;;;;;6.40;100.00;102753.19;5002351;28;20215;-67
2023/02/11 03:18:06;;;;;;;51.70;29.70;;;;;;;6.40;100.00;102751.50;5000449;28;20187;-67
2023/02/11 03:20:36;;;;;;;60.53;31.17;;;;;;;6.41;100.00;102742.22;5002202;28;20210;-67
2023/02/11 03:23:20;;;;;;;59.13;30.13;;;;;;;6.42;100.00;102746.53;5008922;28;20257;-67
2023/02/11 03:25:54;;;;;;;61.63;30.20;;;;;;;6.43;100.00;102741.56;5000202;28;20208;-67
2023/02/11 03:28:35;;;;;;;58.13;31.43;;;;;;;6.42;100.00;102749.06;5006171;28;20221;-67
2023/02/11 03:31:10;;;;;;;56.33;30.43;;;;;;;6.40;100.00;102746.44;4982128;28;20200;-67
2023/02/11 03:34:01;;;;;;;58.47;31.50;;;;;;;6.40;100.00;102741.34;4986727;28;20199;-67
2023/02/11 03:36:34;;;;;;;62.27;30.03;;;;;;;6.41;100.00;102740.56;5004488;28;20210;-67
2023/02/11 03:39:02;;;;;;;64.13;31.80;;;;;;;6.39;100.00;102742.13;5005137;28;20198;-67
2023/02/11 03:41:30;;;;;;;57.90;30.97;;;;;;;6.42;100.00;102749.06;5000383;28;20278;-67
2023/02/11 03:43:58;;;;;;;58.00;30.27;;;;;;;6.40;100.00;102741.34;5003868;28;20272;-67
2023/02/11 03:46:30;;;;;;;59.77;30.00;;;;;;;6.41;100.00;102734.59;5004924;28;20214;-67
2023/02/11 03:49:01;;;;;;;58.20;29.00;;;;;;;6.43;100.00;102727.94;5000894;28;20201;-67
2023/02/11 03:51:30;;;;;;;58.50;30.67;;;;;;;6.44;100.00;102729.72;4998053;28;20192;-67
2023/02/11 03:53:58;;;;;;;57.67;30.73;;;;;;;6.42;100.00;102724.53;5005602;28;20214;-67
2023/02/11 03:56:30;;;;;;;62.30;30.77;;;;;;;6.43;100.00;102718.66;5001205;28;20625;-66
2023/02/11 03:58:56;;;;;;;57.93;30.27;;;;;;;6.45;100.00;102723.84;5008272;28;20240;-67
2023/02/11 04:01:22;;;;;;;61.50;31.77;;;;;;;6.45;100.00;102721.31;5003558;28;20569;-66
2023/02/11 04:03:47;;;;;;;58.03;29.70;;;;;;;6.46;100.00;102713.78;4999205;28;20721;-67
2023/02/11 04:06:13;;;;;;;58.57;30.17;;;;;;;6.46;100.00;102710.34;4997422;28;20219;-67
2023/02/11 04:08:38;;;;;;;50.20;29.83;;;;;;;6.49;100.00;102713.09;5002043;28;20272;-68
2023/02/11 04:11:04;;;;;;;60.20;30.73;;;;;;;6.50;100.00;102708.09;5004064;28;20277;-67
2023/02/11 04:13:29;;;;;;;56.80;30.03;;;;;;;6.52;100.00;102709.09;5001098;28;20205;-67
2023/02/11 04:15:55;;;;;;;52.90;29.23;;;;;;;6.55;100.00;102714.38;5001943;28;20344;-67
2023/02/11 04:18:20;;;;;;;59.00;27.73;;;;;;;6.56;100.00;102717.78;5004847;28;20200;-66
2023/02/11 04:20:46;;;;;;;55.63;29.07;;;;;;;6.57;100.00;102710.25;5003634;28;20684;-67
2023/02/11 04:23:12;;;;;;;56.47;28.63;;;;;;;6.59;100.00;102710.38;5004536;28;20672;-67
2023/02/11 04:25:37;;;;;;;52.20;27.67;;;;;;;6.59;100.00;102718.00;5003137;28;20249;-67
2023/02/11 04:28:03;;;;;;;52.37;26.93;;;;;;;6.63;100.00;102717.41;5000885;28;20282;-67
2023/02/11 04:30:28;;;;;;;58.27;28.73;;;;;;;6.64;100.00;102719.19;4995340;28;20223;-67
2023/02/11 04:32:53;;;;;;;50.97;26.27;;;;;;;6.64;100.00;102724.28;4999407;28;20569;-67
2023/02/11 04:35:19;;;;;;;54.40;26.20;;;;;;;6.66;100.00;102728.69;5001476;28;20214;-67
2023/02/11 04:37:45;;;;;;;45.20;25.30;;;;;;;6.70;100.00;102722.09;5000687;28;20278;-68
2023/02/11 04:40:11;;;;;;;46.17;25.07;;;;;;;6.71;100.00;102734.94;5005943;28;20353;-68
2023/02/11 04:42:36;;;;;;;45.47;24.20;;;;;;;6.74;100.00;102726.63;4999510;28;20204;-68
2023/02/11 04:45:02;;;;;;;48.60;23.17;;;;;;;6.76;100.00;102737.78;4990140;28;20261;-67
2023/02/11 04:47:27;;;;;;;46.30;22.50;;;;;;;6.78;100.00;102732.00;4999798;28;20357;-67
2023/02/11 04:49:53;;;;;;;43.37;24.07;;;;;;;6.78;100.00;102742.19;4999123;28;20204;-67
2023/02/11 04:52:18;;;;;;;40.80;22.53;;;;;;;6.80;100.00;102738.09;5005283;28;20290;-68
2023/02/11 04:54:44;;;;;;;43.07;22.57;;;;;;;6.81;100.00;102734.75;5001120;28;20200;-68
2023/02/11 04:57:09;;;;;;;40.73;22.43;;;;;;;6.84;100.00;102732.41;5003596;28;20211;-68
2023/02/11 04:59:34;;;;;;;45.23;22.40;;;;;;;6.85;100.00;102730.72;4999055;28;20239;-68
2023/02/11 05:02:00;;;;;;;40.60;21.20;;;;;;;6.86;100.00;102735.06;5004504;28;20195;-67
2023/02/11 05:04:25;;;;;;;43.27;21.60;;;;;;;6.87;100.00;102727.50;5004627;28;20207;-68
2023/02/11 05:06:51;;;;;;;35.20;20.83;;;;;;;6.88;100.00;102729.28;4988663;28;20219;-67
2023/02/11 05:09:16;;;;;;;47.20;21.50;;;;;;;6.93;100.00;102727.91;5000808;28;20564;-68
2023/02/11 05:11:42;;;;;;;42.80;21.27;;;;;;;6.94;100.00;102727.13;4999483;28;20789;-68
2023/02/11 05:14:07;;;;;;;40.67;21.60;;;;;;;6.97;100.00;102734.97;5006325;28;20616;-68
2023/02/11 05:16:33;;;;;;;47.50;21.17;;;;;;;6.97;100.00;102727.31;4999467;28;20625;-68
2023/02/11 05:18:59;;;;;;;42.10;20.17;;;;;;;6.97;100.00;102722.22;4982268;28;20211;-68
2023/02/11 05:21:25;;;;;;;37.53;20.87;;;;;;;7.00;100.00;102726.63;5002316;28;20203;-67
2023/02/11 05:23:50;;;;;;;38.47;20.13;;;;;;;7.01;100.00;102731.81;4980332;28;20740;-67
2023/02/11 05:26:17;;;;;;;39.37;19.37;;;;;;;7.03;100.00;102717.53;4988175;28;20988;-67
2023/02/11 05:28:43;;;;;;;43.13;20.60;;;;;;;7.04;100.00;102716.72;5002724;28;20286;-67
2023/02/11 05:31:09;;;;;;;36.63;19.20;;;;;;;7.05;100.00;102721.03;4996283;28;20195;-67
2023/02/11 05:33:35;;;;;;;37.67;19.03;;;;;;;7.05;100.00;102718.47;5005366;28;20227;-67
2023/02/11 05:36:03;;;;;;;36.87;18.93;;;;;;;7.07;100.00;102716.03;4997527;28;20293;-67
2023/02/11 05:38:29;;;;;;;38.13;18.50;;;;;;;7.10;100.00;102714.56;5002205;28;20209;-67
2023/02/11 05:40:54;;;;;;;35.20;18.80;;;;;;;7.09;100.00;102712.81;5002936;28;20191;-67
2023/02/11 05:43:20;;;;;;;40.00;19.90;;;;;;;7.08;100.00;102703.41;5004399;28;20289;-68
2023/02/11 05:45:45;;;;;;;39.37;18.50;;;;;;;7.09;100.00;102711.94;4983344;28;20600;-67
2023/02/11 05:48:11;;;;;;;40.80;19.70;;;;;;;7.10;100.00;102708.59;5002767;28;20195;-67
2023/02/11 05:50:36;;;;;;;36.40;19.00;;;;;;;7.10;100.00;102704.38;5002640;28;20716;-67
2023/02/11 05:53:02;;;;;;;33.73;18.57;;;;;;;7.09;100.00;102691.56;5003897;28;20308;-67
2023/02/11 05:55:28;;;;;;;34.77;18.63;;;;;;;7.10;100.00;102698.41;5005162;28;20268;-67
2023/02/11 05:57:53;;;;;;;40.43;18.23;;;;;;;7.10;100.00;102698.41;5008174;28;20187;-67
2023/02/11 06:00:19;;;;;;;38.00;18.17;;;;;;;7.13;100.00;102683.31;5006498;28;20206;-67
2023/02/11 06:02:44;;;;;;;38.40;17.50;;;;;;;7.11;100.00;102680.69;4999099;28;20237;-67
2023/02/11 06:05:10;;;;;;;34.20;18.57;;;;;;;7.12;100.00;102676.47;4999495;28;20724;-67
2023/02/11 06:07:35;;;;;;;38.33;18.27;;;;;;;7.13;100.00;102676.56;5004875;28;20227;-67
2023/02/11 06:10:00;;;;;;;32.97;16.23;;;;;;;7.16;100.00;102676.75;5005375;28;20193;-67
2023/02/11 06:12:26;;;;;;;30.13;15.90;;;;;;;7.13;100.00;102684.19;5002341;28;20959;-67
2023/02/11 06:14:52;;;;;;;29.17;16.47;;;;;;;7.15;100.00;102685.19;4997516;28;20696;-67
2023/02/11 06:17:17;;;;;;;33.03;17.10;;;;;;;7.17;100.00;102675.06;5000088;28;20214;-68
2023/02/11 06:19:43;;;;;;;32.53;16.70;;;;;;;7.18;100.00;102684.50;4999837;28;20556;-67
2023/02/11 06:22:09;;;;;;;31.50;16.33;;;;;;;7.16;100.00;102688.59;5010052;28;20199;-68
2023/02/11 06:24:35;;;;;;;34.77;16.57;;;;;;;7.15;100.00;102676.66;5008749;28;20304;-68
2023/02/11 06:27:02;;;;;;;31.80;16.40;;;;;;;7.18;100.00;102671.75;4993461;28;20219;-67
2023/02/11 06:29:28;;;;;;;31.23;16.90;;;;;;;7.20;100.00;102668.53;5011548;28;20229;-67
2023/02/11 06:31:53;;;;;;;33.47;16.70;;;;;;;7.20;100.00;102670.19;5007666;28;20200;-68
2023/02/11 06:34:19;;;;;;;30.67;16.20;;;;;;;7.21;100.00;102672.84;5008807;28;20206;-67
2023/02/11 06:36:44;;;;;;;29.77;16.87;;;;;;;7.23;100.00;102678.03;5010653;28;20688;-67
2023/02/11 06:39:11;;;;;;;32.70;17.23;;;;;;;7.22;100.00;102687.31;5008556;28;20280;-68
2023/02/11 06:41:36;;;;;;;29.10;16.20;;;;;;;7.23;100.00;102686.53;5007243;28;20196;-67
2023/02/11 06:44:03;;;;;;;29.77;16.60;;;;;;;7.22;100.00;102687.31;5008558;28;20269;-68
2023/02/11 06:46:29;;;;;;;34.77;16.77;;;;;;;7.25;100.00;102681.53;5001004;28;20242;-67
2023/02/11 06:48:54;;;;;;;32.90;16.87;;;;;;;7.23;100.00;102676.34;5005540;28;20225;-68
2023/02/11 06:51:20;;;;;;;36.80;17.67;;;;;;;7.23;100.00;102688.22;5007279;28;20622;-67
2023/02/11 06:53:46;;;;;;;30.03;16.63;;;;;;;7.24;100.00;102703.56;5006736;28;20195;-68
2023/02/11 06:56:17;;;;;;;27.53;16.23;;;;;;;7.26;100.00;102709.66;5010225;28;20278;-67
2023/02/11 06:58:42;;;;;;;31.30;15.97;;;;;;;7.26;100.00;102717.31;5002900;28;20197;-68
2023/02/11 07:01:11;;;;;;;32.50;16.27;;;;;;;7.30;100.00;102723.47;5008636;28;20213;-68
2023/02/11 07:03:38;;;;;;;28.33;15.63;;;;;;;7.30;100.00;102731.09;5008456;28;20222;-68
2023/02/11 07:06:06;;;;;;;28.70;16.07;;;;;;;7.32;100.00;102732.97;5003570;28;20307;-68
2023/02/11 07:08:35;;;;;;;26.67;15.37;;;;;;;7.32;100.00;102737.19;5006060;28;20676;-68
2023/02/11 07:11:08;;;;;;;25.53;15.17;;;;;;;7.34;100.00;102733.06;5008105;28;20196;-68
2023/02/11 07:13:33;;;;;;;29.57;15.27;;;;;;;7.34;100.00;102741.59;5008862;28;20206;-68
2023/02/11 07:16:04;;;;;;;28.50;14.87;;;;;;;7.39;100.00;102739.31;5005661;28;20207;-67
2023/02/11 07:18:29;;;;;;;28.70;15.20;;;;;;;7.41;100.00;102741.19;5008416;28;20778;-67
2023/02/11 07:20:54;;;;;;;24.97;15.43;;;;;;;7.43;100.00;102743.81;5007453;28;20322;-67
2023/02/11 07:23:20;;;;;;;25.13;15.20;;;;;;;7.42;100.00;102742.94;5004235;28;20214;-68
2023/02/11 07:25:45;;;;;;;26.93;14.97;;;;;;;7.43;100.00;102741.28;5007962;28;20265;-68
2023/02/11 07:28:11;;;;;;;29.33;14.20;;;;;;;7.42;100.00;102736.97;5008526;28;20253;-68
2023/02/11 07:30:36;;;;;;;23.83;14.90;;;;;;;7.46;100.00;102746.59;5007125;28;20199;-67
2023/02/11 07:33:02;;;;;;;23.50;15.20;;;;;;;7.46;100.00;102744.91;4999734;28;20195;-68
2023/02/11 07:35:27;;;;;;;25.10;14.43;;;;;;;7.45;100.00;102739.69;5006919;28;20219;-68
2023/02/11 07:37:52;;;;;;;26.77;15.00;;;;;;;7.46;100.00;102739.78;5007466;28;20195;-67
2023/02/11 07:40:18;;;;;;;28.77;16.50;;;;;;;7.44;100.00;102737.94;5009890;28;20203;-67
2023/02/11 07:42:43;;;;;;;26.23;15.10;;;;;;;7.47;100.00;102735.59;5009738;28;20207;-68
2023/02/11 07:45:09;;;;;;;25.93;15.03;;;;;;;7.46;100.00;102744.91;5003369;28;20723;-68
2023/02/11 07:47:34;;;;;;;30.53;17.07;;;;;;;7.48;100.00;102742.44;5005518;28;20584;-67
2023/02/11 07:50:00;;;;;;;28.47;15.70;;;;;;;7.51;100.00;102747.75;5006464;28;20194;-67
2023/02/11 07:52:29;;;;;;;28.93;14.40;;;;;;;7.53;100.00;102756.34;5005201;28;20199;-67
2023/02/11 07:54:54;;;;;;;30.27;16.43;;;;;;;7.53;100.00;102764.91;5006952;28;20249;-68
2023/02/11 07:57:19;;;;;;;27.77;15.57;;;;;;;7.55;100.00;102760.75;5008998;28;20223;-68
2023/02/11 07:59:45;;;;;;;32.37;15.60;;;;;;;7.56;100.00;102765.06;5007848;28;20194;-67
2023/02/11 08:02:10;;;;;;;29.03;15.27;;;;;;;7.56;100.00;102764.19;4991077;28;20657;-68
2023/02/11 08:04:36;;;;;;;33.43;15.40;;;;;;;7.57;100.00;102771.06;5009860;28;20298;-68
2023/02/11 08:07:01;;;;;;;25.90;14.50;;;;;;;7.59;100.00;102777.13;5008121;28;20654;-68
2023/02/11 08:09:27;;;;;;;23.67;14.70;;;;;;;7.61;100.00;102773.88;5008551;28;20195;-68
2023/02/11 08:11:52;;;;;;;27.13;15.27;;;;;;;7.62;100.00;102767.13;5008780;28;20840;-67
2023/02/11 08:14:19;;;;;;;27.23;14.73;;;;;;;7.64;100.00;102773.22;5002191;28;20668;-67
2023/02/11 08:16:45;;;;;;;29.73;16.43;;;;;;;7.63;100.00;102764.66;5008274;28;20217;-67
2023/02/11 08:19:13;;;;;;;24.47;14.27;;;;;;;7.67;100.00;102755.53;5010569;28;20191;-67
2023/02/11 08:21:39;;;;;;;25.53;14.53;;;;;;;7.70;100.00;102764.25;5008113;28;20204;-67
2023/02/11 08:24:06;;;;;;;25.60;15.03;;;;;;;7.70;100.00;102761.69;4999020;28;20613;-67
2023/02/11 08:26:33;;;;;;;24.60;14.67;;;;;;;7.74;100.00;102765.34;5002080;28;20289;-67
2023/02/11 08:29:00;;;;;;;24.37;14.37;;;;;;;7.75;100.00;102767.09;4986313;28;20191;-67
2023/02/11 08:31:32;;;;;;;26.53;15.10;;;;;;;7.76;100.00;102773.94;4986204;28;20188;-67
2023/02/11 08:33:58;;;;;;;23.90;13.90;;;;;;;7.78;100.00;102786.00;5003581;28;20194;-67
2023/02/11 08:36:28;;;;;;;27.90;15.40;;;;;;;7.84;100.00;102786.38;4992397;28;20296;-67
2023/02/11 08:38:58;;;;;;;24.23;14.10;;;;;;;7.86;100.00;102781.38;5005960;28;20194;-67
2023/02/11 08:41:25;;;;;;;23.97;14.40;;;;;;;7.87;100.00;102783.16;5000159;28;20195;-67
2023/02/11 08:43:50;;;;;;;23.30;13.87;;;;;;;7.90;100.00;102796.06;5006584;28;20192;-67
2023/02/11 08:46:18;;;;;;;20.00;13.20;;;;;;;7.95;100.00;102798.13;5004588;28;20712;-67
2023/02/11 08:48:45;;;;;;;32.27;15.20;;;;;;;7.95;100.00;102807.44;5001015;28;20195;-67
2023/02/11 08:51:17;;;;;;;27.93;15.07;;;;;;;7.97;100.00;102819.50;4989415;28;20209;-68
2023/02/11 08:53:43;;;;;;;27.37;14.50;;;;;;;7.98;100.00;102817.84;4989518;28;20253;-67
2023/02/11 08:56:10;;;;;;;23.70;13.77;;;;;;;8.00;100.00;102812.03;5004011;28;20218;-67
2023/02/11 08:58:35;;;;;;;23.00;13.23;;;;;;;8.01;100.00;102823.13;5006465;28;20566;-67
2023/02/11 09:01:01;;;;;;;23.70;13.57;;;;;;;8.01;100.00;102808.69;5000805;28;20196;-67
2023/02/11 09:03:26;;;;;;;24.23;14.03;;;;;;;8.04;100.00;102806.34;5007437;28;20191;-67
2023/02/11 09:05:52;;;;;;;20.00;13.27;;;;;;;8.08;100.00;102817.59;5008079;28;20600;-67
2023/02/11 09:08:18;;;;;;;23.40;14.17;;;;;;;8.08;100.00;102815.94;5008790;28;20286;-67
2023/02/11 09:10:44;;;;;;;21.23;12.93;;;;;;;8.15;100.00;102820.63;4986128;28;20194;-66
2023/02/11 09:13:10;;;;;;;22.33;13.60;;;;;;;8.17;100.00;102816.50;4998985;28;20727;-66
2023/02/11 09:15:36;;;;;;;21.67;13.17;;;;;;;8.22;100.00;102819.34;5006938;28;20214;-67
2023/02/11 09:18:02;;;;;;;25.70;13.37;;;;;;;8.17;100.00;102808.84;5005697;28;20208;-67
2023/02/11 09:20:28;;;;;;;18.80;12.33;;;;;;;8.20;100.00;102819.25;5001395;28;20199;-67
2023/02/11 09:22:57;;;;;;;18.40;12.63;;;;;;;8.19;100.00;102822.56;5004520;28;20602;-68
2023/02/11 09:25:22;;;;;;;22.17;12.50;;;;;;;8.17;100.00;102826.72;4975675;28;20262;-67
2023/02/11 09:27:50;;;;;;;20.57;10.83;;;;;;;8.18;100.00;102832.69;5002540;28;20774;-68
2023/02/11 09:30:15;;;;;;;19.93;11.50;;;;;;;8.23;100.00;102844.06;4990747;28;20290;-68
2023/02/11 09:32:41;;;;;;;24.30;13.13;;;;;;;8.24;100.00;102858.63;5008334;28;20286;-66
2023/02/11 09:35:07;;;;;;;17.40;11.43;;;;;;;8.27;100.00;102862.25;5006683;28;20310;-68
2023/02/11 09:37:32;;;;;;;17.93;11.60;;;;;;;8.27;100.00;102864.78;4990141;28;20222;-67
2023/02/11 09:39:58;;;;;;;20.73;12.13;;;;;;;8.30;100.00;102853.88;5007921;28;20727;-68
2023/02/11 09:42:46;;;;;;;20.47;11.67;;;;;;;8.31;100.00;102845.44;5007971;28;20252;-68
2023/02/11 09:45:22;;;;;;;17.33;10.60;;;;;;;8.33;100.00;102852.38;5003446;28;20321;-68
2023/02/11 09:47:54;;;;;;;21.23;10.97;;;;;;;8.35;100.00;102848.28;5005394;28;20563;-68
2023/02/11 09:50:33;;;;;;;15.50;10.50;;;;;;;8.39;100.00;102846.78;5003664;28;20326;-68
2023/02/11 09:53:10;;;;;;;16.63;10.33;;;;;;;8.41;100.00;102840.09;4990647;28;20277;-68
2023/02/11 09:55:41;;;;;;;19.83;10.70;;;;;;;8.39;100.00;102842.53;5008421;28;20225;-67
2023/02/11 09:58:31;;;;;;;19.50;10.60;;;;;;;8.43;100.00;102846.19;5013505;28;20222;-68
2023/02/11 10:01:08;;;;;;;18.40;10.63;;;;;;;8.43;100.00;102838.53;5014170;28;20289;-67
2023/02/11 10:04:05;;;;;;;19.43;10.37;;;;;;;8.44;100.00;102843.69;5007331;28;20723;-67
2023/02/11 10:06:59;;;;;;;21.37;9.37;;;;;;;8.45;100.00;102842.94;5008139;28;20227;-67
2023/02/11 10:09:45;;;;;;;18.10;9.83;;;;;;;8.47;100.00;102835.38;4992408;28;20297;-67
2023/02/11 10:12:20;;;;;;;19.00;10.37;;;;;;;8.49;100.00;102838.88;5004962;28;20199;-67
2023/02/11 10:14:57;;;;;;;18.10;10.10;;;;;;;8.53;100.00;102851.91;5013467;28;20189;-67
2023/02/11 10:17:45;;;;;;;20.93;10.20;;;;;;;8.54;100.00;102851.13;4990972;28;20220;-67
2023/02/11 10:20:31;;;;;;;18.83;9.77;;;;;;;8.54;100.00;102851.13;5004480;28;20290;-67
2023/02/11 10:23:00;;;;;;;20.87;10.20;;;;;;;8.55;100.00;102864.75;5010337;28;20194;-67
2023/02/11 10:25:58;;;;;;;21.20;10.27;;;;;;;8.60;100.00;102860.81;5009631;28;20223;-67
2023/02/11 10:28:31;;;;;;;19.77;9.47;;;;;;;8.60;100.00;102865.91;4995635;28;20683;-67
2023/02/11 10:31:03;;;;;;;17.30;9.93;;;;;;;8.59;100.00;102852.28;5011036;28;20183;-67
2023/02/11 10:33:35;;;;;;;19.93;9.53;;;;;;;8.60;100.00;102855.69;5003981;28;20837;-67
2023/02/11 10:36:03;;;;;;;19.10;9.70;;;;;;;8.60;100.00;102851.50;5011074;28;20297;-67
2023/02/11 10:38:28;;;;;;;19.47;10.03;;;;;;;8.57;100.00;102855.53;5011746;28;20195;-67
2023/02/11 10:40:53;;;;;;;20.37;10.57;;;;;;;8.58;100.00;102858.19;5015232;28;20194;-68
2023/02/11 10:43:24;;;;;;;18.00;9.67;;;;;;;8.58;100.00;102858.19;5011478;28;20270;-67
2023/02/11 10:45:52;;;;;;;13.80;9.27;;;;;;;8.56;100.00;102854.66;5009152;28;20217;-67
2023/02/11 10:48:36;;;;;;;18.93;10.53;;;;;;;8.58;100.00;102855.63;5014634;28;20250;-67
2023/02/11 10:51:07;;;;;;;18.57;10.30;;;;;;;8.59;100.00;102844.63;5011705;28;20195;-67
2023/02/11 10:53:34;;;;;;;17.63;10.07;;;;;;;8.59;100.00;102841.19;5010823;28;20195;-67
2023/02/11 10:56:02;;;;;;;17.33;10.23;;;;;;;8.59;100.00;102831.88;4999273;28;20227;-67
2023/02/11 10:58:43;;;;;;;18.50;10.53;;;;;;;8.58;100.00;102842.88;4993827;28;20210;-68
2023/02/11 11:01:09;;;;;;;21.20;11.03;;;;;;;8.62;100.00;102849.03;5002645;28;20345;-67
2023/02/11 11:03:54;;;;;;;19.57;12.03;;;;;;;8.56;100.00;102858.84;5008149;28;20239;-67
2023/02/11 11:06:33;;;;;;;23.47;11.63;;;;;;;8.57;100.00;102869.16;5005325;28;20239;-67
2023/02/11 11:08:59;;;;;;;24.97;11.20;;;;;;;8.56;100.00;102881.84;5003732;28;20667;-67
2023/02/11 11:11:26;;;;;;;18.30;10.50;;;;;;;8.54;100.00;102884.31;5006765;28;20679;-67
2023/02/11 11:13:51;;;;;;;19.33;11.37;;;;;;;8.55;100.00;102880.09;5008268;28;20190;-67
2023/02/11 11:16:21;;;;;;;21.53;10.73;;;;;;;8.54;100.00;102876.66;5006599;28;20222;-67
2023/02/11 11:18:49;;;;;;;24.47;10.47;;;;;;;8.58;100.00;102872.63;4988932;28;20190;-67
2023/02/11 11:21:30;;;;;;;23.43;10.40;;;;;;;8.56;100.00;102867.41;4994764;28;20286;-68
2023/02/11 11:23:58;;;;;;;22.63;10.40;;;;;;;8.56;100.00;102862.31;5003179;28;20194;-68